sensor_id;sensor_type;location;lat;lon;timestamp;P1;durP1;ratioP1;P2;durP2;ratioP2
77544;SDS011;66672;50.328;7.610;2024-03-29T00:01:00;15.00;;;14.20;;
77544;SDS011;66672;50.328;7.610;2024-03-29T00:03:27;15.27;;;14.43;;
77544;SDS011;66672;50.328;7.610;2024-03-29T00:05:52;14.93;;;14.13;;
77544;SDS011;66672;50.328;7.610;2024-03-29T00:08:17;15.27;;;14.48;;
77544;SDS011;66672;50.328;7.610;2024-03-29T00:10:43;14.73;;;13.93;;
77544;SDS011;66672;50.328;7.610;2024-03-29T00:13:08;15.20;;;14.40;;
77544;SDS011;66672;50.328;7.610;2024-03-29T00:15:33;14.48;;;13.73;;
77544;SDS011;66672;50.328;7.610;2024-03-29T00:17:59;14.90;;;14.10;;
77544;SDS011;66672;50.328;7.610;2024-03-29T00:20:24;14.85;;;14.05;;
77544;SDS011;66672;50.328;7.610;2024-03-29T00:22:50;15.20;;;14.40;;
77544;SDS011;66672;50.328;7.610;2024-03-29T00:25:15;14.95;;;14.15;;
77544;SDS011;66672;50.328;7.610;2024-03-29T00:27:41;14.90;;;14.10;;
77544;SDS011;66672;50.328;7.610;2024-03-29T00:30:06;14.85;;;14.05;;
77544;SDS011;66672;50.328;7.610;2024-03-29T00:32:32;15.30;;;14.50;;
77544;SDS011;66672;50.328;7.610;2024-03-29T00:34:57;14.88;;;14.07;;
77544;SDS011;66672;50.328;7.610;2024-03-29T00:37:23;14.80;;;14.00;;
77544;SDS011;66672;50.328;7.610;2024-03-29T00:39:49;14.70;;;13.90;;
77544;SDS011;66672;50.328;7.610;2024-03-29T00:42:14;14.60;;;13.80;;
77544;SDS011;66672;50.328;7.610;2024-03-29T00:44:44;15.00;;;14.20;;
77544;SDS011;66672;50.328;7.610;2024-03-29T00:47:10;14.70;;;13.90;;
77544;SDS011;66672;50.328;7.610;2024-03-29T00:49:35;15.23;;;14.43;;
77544;SDS011;66672;50.328;7.610;2024-03-29T00:52:01;14.90;;;14.10;;
77544;SDS011;66672;50.328;7.610;2024-03-29T00:54:27;15.10;;;14.30;;
77544;SDS011;66672;50.328;7.610;2024-03-29T00:56:52;14.77;;;13.98;;
77544;SDS011;66672;50.328;7.610;2024-03-29T00:59:18;15.40;;;14.60;;
77544;SDS011;66672;50.328;7.610;2024-03-29T01:01:44;14.60;;;13.80;;
77544;SDS011;66672;50.328;7.610;2024-03-29T01:04:10;15.10;;;14.30;;
77544;SDS011;66672;50.328;7.610;2024-03-29T01:06:35;14.93;;;14.13;;
77544;SDS011;66672;50.328;7.610;2024-03-29T01:09:01;15.10;;;14.30;;
77544;SDS011;66672;50.328;7.610;2024-03-29T01:11:28;14.68;;;13.88;;
77544;SDS011;66672;50.328;7.610;2024-03-29T01:13:53;15.88;;;14.98;;
77544;SDS011;66672;50.328;7.610;2024-03-29T01:16:18;14.82;;;14.02;;
77544;SDS011;66672;50.328;7.610;2024-03-29T01:18:44;15.30;;;14.50;;
77544;SDS011;66672;50.328;7.610;2024-03-29T01:21:09;14.55;;;13.75;;
77544;SDS011;66672;50.328;7.610;2024-03-29T01:23:34;15.30;;;14.50;;
77544;SDS011;66672;50.328;7.610;2024-03-29T01:26:00;14.50;;;13.70;;
77544;SDS011;66672;50.328;7.610;2024-03-29T01:28:25;15.10;;;14.30;;
77544;SDS011;66672;50.328;7.610;2024-03-29T01:30:51;14.70;;;13.90;;
77544;SDS011;66672;50.328;7.610;2024-03-29T01:33:17;14.65;;;13.85;;
77544;SDS011;66672;50.328;7.610;2024-03-29T01:35:43;14.93;;;14.13;;
77544;SDS011;66672;50.328;7.610;2024-03-29T01:38:08;14.45;;;13.75;;
77544;SDS011;66672;50.328;7.610;2024-03-29T01:40:33;15.10;;;14.30;;
77544;SDS011;66672;50.328;7.610;2024-03-29T01:43:00;14.63;;;13.82;;
77544;SDS011;66672;50.328;7.610;2024-03-29T01:45:26;15.50;;;14.70;;
77544;SDS011;66672;50.328;7.610;2024-03-29T01:47:51;14.68;;;13.88;;
77544;SDS011;66672;50.328;7.610;2024-03-29T01:50:16;15.25;;;14.45;;
77544;SDS011;66672;50.328;7.610;2024-03-29T01:52:45;14.32;;;13.63;;
77544;SDS011;66672;50.328;7.610;2024-03-29T01:55:11;15.32;;;14.52;;
77544;SDS011;66672;50.328;7.610;2024-03-29T01:57:36;14.60;;;13.85;;
77544;SDS011;66672;50.328;7.610;2024-03-29T02:00:02;15.07;;;14.27;;
77544;SDS011;66672;50.328;7.610;2024-03-29T02:02:30;14.25;;;13.55;;
77544;SDS011;66672;50.328;7.610;2024-03-29T02:04:57;15.20;;;14.40;;
77544;SDS011;66672;50.328;7.610;2024-03-29T02:07:22;14.65;;;13.85;;
77544;SDS011;66672;50.328;7.610;2024-03-29T02:09:48;15.15;;;14.35;;
77544;SDS011;66672;50.328;7.610;2024-03-29T02:12:13;14.68;;;13.88;;
77544;SDS011;66672;50.328;7.610;2024-03-29T02:14:38;15.15;;;14.35;;
77544;SDS011;66672;50.328;7.610;2024-03-29T02:17:05;15.60;;;14.70;;
77544;SDS011;66672;50.328;7.610;2024-03-29T02:19:31;15.18;;;14.38;;
77544;SDS011;66672;50.328;7.610;2024-03-29T02:21:56;14.90;;;14.10;;
77544;SDS011;66672;50.328;7.610;2024-03-29T02:24:25;15.02;;;14.23;;
77544;SDS011;66672;50.328;7.610;2024-03-29T02:26:51;14.90;;;14.10;;
77544;SDS011;66672;50.328;7.610;2024-03-29T02:29:21;16.42;;;15.52;;
77544;SDS011;66672;50.328;7.610;2024-03-29T02:31:47;15.10;;;14.30;;
77544;SDS011;66672;50.328;7.610;2024-03-29T02:34:12;14.85;;;14.05;;
77544;SDS011;66672;50.328;7.610;2024-03-29T02:36:38;15.10;;;14.30;;
77544;SDS011;66672;50.328;7.610;2024-03-29T02:39:03;14.48;;;13.77;;
77544;SDS011;66672;50.328;7.610;2024-03-29T02:41:28;15.38;;;14.57;;
77544;SDS011;66672;50.328;7.610;2024-03-29T02:43:55;14.45;;;13.73;;
77544;SDS011;66672;50.328;7.610;2024-03-29T02:46:21;15.32;;;14.52;;
77544;SDS011;66672;50.328;7.610;2024-03-29T02:48:46;15.63;;;14.82;;
77544;SDS011;66672;50.328;7.610;2024-03-29T02:51:12;15.15;;;14.35;;
77544;SDS011;66672;50.328;7.610;2024-03-29T02:53:37;14.90;;;14.10;;
77544;SDS011;66672;50.328;7.610;2024-03-29T02:56:03;14.90;;;14.10;;
77544;SDS011;66672;50.328;7.610;2024-03-29T02:58:29;14.68;;;13.98;;
77544;SDS011;66672;50.328;7.610;2024-03-29T03:00:54;14.65;;;13.88;;
77544;SDS011;66672;50.328;7.610;2024-03-29T03:03:19;15.00;;;14.20;;
77544;SDS011;66672;50.328;7.610;2024-03-29T03:05:45;14.48;;;13.77;;
77544;SDS011;66672;50.328;7.610;2024-03-29T03:08:10;15.90;;;15.10;;
77544;SDS011;66672;50.328;7.610;2024-03-29T03:10:54;15.32;;;14.52;;
77544;SDS011;66672;50.328;7.610;2024-03-29T03:13:25;14.68;;;13.90;;
77544;SDS011;66672;50.328;7.610;2024-03-29T03:15:54;15.07;;;14.27;;
77544;SDS011;66672;50.328;7.610;2024-03-29T03:18:20;14.60;;;13.70;;
77544;SDS011;66672;50.328;7.610;2024-03-29T03:20:55;15.10;;;14.30;;
77544;SDS011;66672;50.328;7.610;2024-03-29T03:23:25;15.27;;;14.48;;
77544;SDS011;66672;50.328;7.610;2024-03-29T03:26:00;14.30;;;13.60;;
77544;SDS011;66672;50.328;7.610;2024-03-29T03:28:28;14.90;;;14.10;;
77544;SDS011;66672;50.328;7.610;2024-03-29T03:30:56;14.30;;;13.60;;
77544;SDS011;66672;50.328;7.610;2024-03-29T03:33:21;14.90;;;14.10;;
77544;SDS011;66672;50.328;7.610;2024-03-29T03:35:47;14.90;;;14.13;;
77544;SDS011;66672;50.328;7.610;2024-03-29T03:38:13;15.00;;;14.20;;
77544;SDS011;66672;50.328;7.610;2024-03-29T03:40:38;14.13;;;13.43;;
77544;SDS011;66672;50.328;7.610;2024-03-29T03:43:04;14.88;;;14.18;;
77544;SDS011;66672;50.328;7.610;2024-03-29T03:45:37;14.23;;;13.52;;
77544;SDS011;66672;50.328;7.610;2024-03-29T03:48:03;15.32;;;14.52;;
77544;SDS011;66672;50.328;7.610;2024-03-29T03:50:30;14.10;;;13.40;;
77544;SDS011;66672;50.328;7.610;2024-03-29T03:52:55;14.95;;;14.25;;
77544;SDS011;66672;50.328;7.610;2024-03-29T03:55:21;13.93;;;13.23;;
77544;SDS011;66672;50.328;7.610;2024-03-29T03:57:46;14.63;;;13.93;;
77544;SDS011;66672;50.328;7.610;2024-03-29T04:00:12;14.10;;;13.40;;
77544;SDS011;66672;50.328;7.610;2024-03-29T04:02:37;14.23;;;13.52;;
77544;SDS011;66672;50.328;7.610;2024-03-29T04:05:03;15.35;;;14.13;;
77544;SDS011;66672;50.328;7.610;2024-03-29T04:07:28;14.18;;;13.48;;
77544;SDS011;66672;50.328;7.610;2024-03-29T04:09:54;14.85;;;14.05;;
77544;SDS011;66672;50.328;7.610;2024-03-29T04:12:19;13.85;;;13.15;;
77544;SDS011;66672;50.328;7.610;2024-03-29T04:14:44;14.50;;;13.80;;
77544;SDS011;66672;50.328;7.610;2024-03-29T04:17:10;13.88;;;13.18;;
77544;SDS011;66672;50.328;7.610;2024-03-29T04:19:35;14.45;;;13.75;;
77544;SDS011;66672;50.328;7.610;2024-03-29T04:22:00;13.90;;;13.20;;
77544;SDS011;66672;50.328;7.610;2024-03-29T04:24:27;15.30;;;14.50;;
77544;SDS011;66672;50.328;7.610;2024-03-29T04:26:53;13.90;;;13.20;;
77544;SDS011;66672;50.328;7.610;2024-03-29T04:29:18;15.00;;;14.00;;
77544;SDS011;66672;50.328;7.610;2024-03-29T04:31:44;14.10;;;13.40;;
77544;SDS011;66672;50.328;7.610;2024-03-29T04:34:10;14.55;;;13.85;;
77544;SDS011;66672;50.328;7.610;2024-03-29T04:36:36;14.90;;;14.00;;
77544;SDS011;66672;50.328;7.610;2024-03-29T04:39:01;14.30;;;13.60;;
77544;SDS011;66672;50.328;7.610;2024-03-29T04:41:26;14.95;;;14.25;;
77544;SDS011;66672;50.328;7.610;2024-03-29T04:43:51;14.10;;;13.40;;
77544;SDS011;66672;50.328;7.610;2024-03-29T04:46:17;14.85;;;14.10;;
77544;SDS011;66672;50.328;7.610;2024-03-29T04:48:43;13.93;;;13.23;;
77544;SDS011;66672;50.328;7.610;2024-03-29T04:51:10;14.90;;;13.90;;
77544;SDS011;66672;50.328;7.610;2024-03-29T04:53:37;13.73;;;13.02;;
77544;SDS011;66672;50.328;7.610;2024-03-29T04:56:03;14.50;;;13.80;;
77544;SDS011;66672;50.328;7.610;2024-03-29T04:58:29;15.20;;;14.40;;
77544;SDS011;66672;50.328;7.610;2024-03-29T05:00:54;14.63;;;13.93;;
77544;SDS011;66672;50.328;7.610;2024-03-29T05:03:20;14.10;;;13.40;;
77544;SDS011;66672;50.328;7.610;2024-03-29T05:05:47;14.02;;;13.32;;
77544;SDS011;66672;50.328;7.610;2024-03-29T05:08:13;14.20;;;13.50;;
77544;SDS011;66672;50.328;7.610;2024-03-29T05:10:39;14.05;;;13.35;;
77544;SDS011;66672;50.328;7.610;2024-03-29T05:13:05;14.40;;;13.70;;
77544;SDS011;66672;50.328;7.610;2024-03-29T05:15:30;13.65;;;12.95;;
77544;SDS011;66672;50.328;7.610;2024-03-29T05:17:56;14.55;;;13.85;;
77544;SDS011;66672;50.328;7.610;2024-03-29T05:20:21;14.02;;;13.32;;
77544;SDS011;66672;50.328;7.610;2024-03-29T05:22:46;14.50;;;13.80;;
77544;SDS011;66672;50.328;7.610;2024-03-29T05:25:12;15.50;;;14.70;;
77544;SDS011;66672;50.328;7.610;2024-03-29T05:27:37;14.48;;;13.38;;
77544;SDS011;66672;50.328;7.610;2024-03-29T05:30:03;14.27;;;13.57;;
77544;SDS011;66672;50.328;7.610;2024-03-29T05:32:29;13.75;;;13.05;;
77544;SDS011;66672;50.328;7.610;2024-03-29T05:34:55;14.30;;;13.60;;
77544;SDS011;66672;50.328;7.610;2024-03-29T05:37:21;14.00;;;13.30;;
77544;SDS011;66672;50.328;7.610;2024-03-29T05:39:47;14.15;;;13.45;;
77544;SDS011;66672;50.328;7.610;2024-03-29T05:42:12;14.13;;;13.43;;
77544;SDS011;66672;50.328;7.610;2024-03-29T05:44:38;13.82;;;13.13;;
77544;SDS011;66672;50.328;7.610;2024-03-29T05:47:03;14.50;;;13.80;;
77544;SDS011;66672;50.328;7.610;2024-03-29T05:49:31;13.70;;;13.00;;
77544;SDS011;66672;50.328;7.610;2024-03-29T05:51:57;14.80;;;14.00;;
77544;SDS011;66672;50.328;7.610;2024-03-29T05:54:22;14.23;;;13.52;;
77544;SDS011;66672;50.328;7.610;2024-03-29T05:56:48;13.10;;;12.40;;
77544;SDS011;66672;50.328;7.610;2024-03-29T05:59:13;13.95;;;13.25;;
77544;SDS011;66672;50.328;7.610;2024-03-29T06:01:38;13.40;;;12.70;;
77544;SDS011;66672;50.328;7.610;2024-03-29T06:04:04;13.05;;;12.35;;
77544;SDS011;66672;50.328;7.610;2024-03-29T06:06:38;13.77;;;13.07;;
77544;SDS011;66672;50.328;7.610;2024-03-29T06:09:03;12.88;;;12.18;;
77544;SDS011;66672;50.328;7.610;2024-03-29T06:11:28;13.18;;;12.48;;
77544;SDS011;66672;50.328;7.610;2024-03-29T06:13:54;13.75;;;13.05;;
77544;SDS011;66672;50.328;7.610;2024-03-29T06:16:19;13.20;;;12.50;;
77544;SDS011;66672;50.328;7.610;2024-03-29T06:19:05;13.30;;;12.60;;
77544;SDS011;66672;50.328;7.610;2024-03-29T06:21:30;13.48;;;12.77;;
77544;SDS011;66672;50.328;7.610;2024-03-29T06:24:03;13.68;;;12.98;;
77544;SDS011;66672;50.328;7.610;2024-03-29T06:26:29;12.90;;;12.20;;
77544;SDS011;66672;50.328;7.610;2024-03-29T06:28:55;13.00;;;12.30;;
77544;SDS011;66672;50.328;7.610;2024-03-29T06:31:20;13.20;;;12.50;;
77544;SDS011;66672;50.328;7.610;2024-03-29T06:33:45;13.65;;;12.95;;
77544;SDS011;66672;50.328;7.610;2024-03-29T06:36:10;12.50;;;11.90;;
77544;SDS011;66672;50.328;7.610;2024-03-29T06:38:36;12.63;;;12.02;;
77544;SDS011;66672;50.328;7.610;2024-03-29T06:41:01;12.98;;;12.27;;
77544;SDS011;66672;50.328;7.610;2024-03-29T06:43:26;13.07;;;12.38;;
77544;SDS011;66672;50.328;7.610;2024-03-29T06:45:52;13.00;;;12.30;;
77544;SDS011;66672;50.328;7.610;2024-03-29T06:48:17;12.75;;;12.15;;
77544;SDS011;66672;50.328;7.610;2024-03-29T06:50:42;13.10;;;12.45;;
77544;SDS011;66672;50.328;7.610;2024-03-29T06:53:08;12.80;;;12.20;;
77544;SDS011;66672;50.328;7.610;2024-03-29T06:55:34;12.70;;;12.10;;
77544;SDS011;66672;50.328;7.610;2024-03-29T06:58:02;12.48;;;11.88;;
77544;SDS011;66672;50.328;7.610;2024-03-29T07:00:28;12.55;;;11.95;;
77544;SDS011;66672;50.328;7.610;2024-03-29T07:02:53;12.70;;;12.10;;
77544;SDS011;66672;50.328;7.610;2024-03-29T07:05:18;12.75;;;12.13;;
77544;SDS011;66672;50.328;7.610;2024-03-29T07:07:44;12.10;;;11.50;;
77544;SDS011;66672;50.328;7.610;2024-03-29T07:10:12;12.20;;;11.60;;
77544;SDS011;66672;50.328;7.610;2024-03-29T07:12:37;12.32;;;11.73;;
77544;SDS011;66672;50.328;7.610;2024-03-29T07:15:03;12.32;;;11.73;;
77544;SDS011;66672;50.328;7.610;2024-03-29T07:17:28;12.50;;;11.90;;
77544;SDS011;66672;50.328;7.610;2024-03-29T07:19:54;12.10;;;11.50;;
77544;SDS011;66672;50.328;7.610;2024-03-29T07:22:19;12.35;;;11.75;;
77544;SDS011;66672;50.328;7.610;2024-03-29T07:24:45;12.18;;;11.57;;
77544;SDS011;66672;50.328;7.610;2024-03-29T07:27:10;12.10;;;11.50;;
77544;SDS011;66672;50.328;7.610;2024-03-29T07:29:37;12.18;;;11.57;;
77544;SDS011;66672;50.328;7.610;2024-03-29T07:32:03;12.40;;;11.80;;
77544;SDS011;66672;50.328;7.610;2024-03-29T07:34:29;12.27;;;11.68;;
77544;SDS011;66672;50.328;7.610;2024-03-29T07:36:54;12.30;;;11.70;;
77544;SDS011;66672;50.328;7.610;2024-03-29T07:39:19;11.93;;;11.32;;
77544;SDS011;66672;50.328;7.610;2024-03-29T07:41:45;12.18;;;11.57;;
77544;SDS011;66672;50.328;7.610;2024-03-29T07:44:10;11.98;;;11.38;;
77544;SDS011;66672;50.328;7.610;2024-03-29T07:46:36;12.43;;;11.80;;
77544;SDS011;66672;50.328;7.610;2024-03-29T07:49:03;12.25;;;11.65;;
77544;SDS011;66672;50.328;7.610;2024-03-29T07:51:29;12.57;;;11.98;;
77544;SDS011;66672;50.328;7.610;2024-03-29T07:53:55;12.30;;;11.70;;
77544;SDS011;66672;50.328;7.610;2024-03-29T07:56:20;12.20;;;11.60;;
77544;SDS011;66672;50.328;7.610;2024-03-29T07:58:51;11.90;;;11.30;;
77544;SDS011;66672;50.328;7.610;2024-03-29T08:01:18;11.75;;;11.15;;
77544;SDS011;66672;50.328;7.610;2024-03-29T08:03:47;12.05;;;11.45;;
77544;SDS011;66672;50.328;7.610;2024-03-29T08:06:15;12.23;;;11.63;;
77544;SDS011;66672;50.328;7.610;2024-03-29T08:08:43;12.30;;;11.70;;
77544;SDS011;66672;50.328;7.610;2024-03-29T08:11:08;12.18;;;11.57;;
77544;SDS011;66672;50.328;7.610;2024-03-29T08:13:35;12.18;;;11.57;;
77544;SDS011;66672;50.328;7.610;2024-03-29T08:16:00;12.15;;;11.55;;
77544;SDS011;66672;50.328;7.610;2024-03-29T08:18:26;11.93;;;11.32;;
77544;SDS011;66672;50.328;7.610;2024-03-29T08:20:53;12.05;;;11.45;;
77544;SDS011;66672;50.328;7.610;2024-03-29T08:23:22;13.27;;;12.45;;
77544;SDS011;66672;50.328;7.610;2024-03-29T08:25:47;12.40;;;11.80;;
77544;SDS011;66672;50.328;7.610;2024-03-29T08:28:13;12.15;;;11.55;;
77544;SDS011;66672;50.328;7.610;2024-03-29T08:30:39;12.00;;;11.40;;
77544;SDS011;66672;50.328;7.610;2024-03-29T08:33:05;12.02;;;11.43;;
77544;SDS011;66672;50.328;7.610;2024-03-29T08:35:31;12.30;;;11.70;;
77544;SDS011;66672;50.328;7.610;2024-03-29T08:37:57;11.90;;;11.30;;
77544;SDS011;66672;50.328;7.610;2024-03-29T08:40:23;12.23;;;11.63;;
77544;SDS011;66672;50.328;7.610;2024-03-29T08:42:49;11.85;;;11.25;;
77544;SDS011;66672;50.328;7.610;2024-03-29T08:45:17;12.20;;;11.50;;
77544;SDS011;66672;50.328;7.610;2024-03-29T08:47:52;12.15;;;11.55;;
77544;SDS011;66672;50.328;7.610;2024-03-29T08:50:18;12.07;;;11.48;;
77544;SDS011;66672;50.328;7.610;2024-03-29T08:52:43;11.93;;;11.32;;
77544;SDS011;66672;50.328;7.610;2024-03-29T08:55:09;12.15;;;11.55;;
77544;SDS011;66672;50.328;7.610;2024-03-29T08:57:35;12.20;;;11.60;;
77544;SDS011;66672;50.328;7.610;2024-03-29T09:00:00;12.20;;;11.60;;
77544;SDS011;66672;50.328;7.610;2024-03-29T09:02:26;12.00;;;11.40;;
77544;SDS011;66672;50.328;7.610;2024-03-29T09:04:51;12.35;;;11.75;;
77544;SDS011;66672;50.328;7.610;2024-03-29T09:07:17;11.95;;;11.35;;
77544;SDS011;66672;50.328;7.610;2024-03-29T09:09:42;11.77;;;11.18;;
77544;SDS011;66672;50.328;7.610;2024-03-29T09:12:08;11.73;;;11.13;;
77544;SDS011;66672;50.328;7.610;2024-03-29T09:14:34;11.95;;;11.35;;
77544;SDS011;66672;50.328;7.610;2024-03-29T09:16:59;11.60;;;11.00;;
77544;SDS011;66672;50.328;7.610;2024-03-29T09:19:24;11.75;;;11.15;;
77544;SDS011;66672;50.328;7.610;2024-03-29T09:21:50;11.90;;;11.30;;
77544;SDS011;66672;50.328;7.610;2024-03-29T09:24:16;12.27;;;11.68;;
77544;SDS011;66672;50.328;7.610;2024-03-29T09:26:42;12.32;;;11.73;;
77544;SDS011;66672;50.328;7.610;2024-03-29T09:29:08;12.32;;;11.73;;
77544;SDS011;66672;50.328;7.610;2024-03-29T09:31:34;12.02;;;11.43;;
77544;SDS011;66672;50.328;7.610;2024-03-29T09:34:00;11.85;;;11.25;;
77544;SDS011;66672;50.328;7.610;2024-03-29T09:36:25;12.02;;;11.43;;
77544;SDS011;66672;50.328;7.610;2024-03-29T09:38:50;11.90;;;11.30;;
77544;SDS011;66672;50.328;7.610;2024-03-29T09:41:17;12.00;;;11.40;;
77544;SDS011;66672;50.328;7.610;2024-03-29T09:43:47;12.30;;;11.70;;
77544;SDS011;66672;50.328;7.610;2024-03-29T09:46:13;11.98;;;11.38;;
77544;SDS011;66672;50.328;7.610;2024-03-29T09:48:42;13.38;;;12.68;;
77544;SDS011;66672;50.328;7.610;2024-03-29T09:51:11;12.13;;;11.52;;
77544;SDS011;66672;50.328;7.610;2024-03-29T09:53:40;11.90;;;11.30;;
77544;SDS011;66672;50.328;7.610;2024-03-29T09:56:06;12.30;;;11.70;;
77544;SDS011;66672;50.328;7.610;2024-03-29T09:58:32;12.13;;;11.52;;
77544;SDS011;66672;50.328;7.610;2024-03-29T10:00:59;11.98;;;11.38;;
77544;SDS011;66672;50.328;7.610;2024-03-29T10:03:25;12.20;;;11.60;;
77544;SDS011;66672;50.328;7.610;2024-03-29T10:05:57;12.23;;;11.63;;
77544;SDS011;66672;50.328;7.610;2024-03-29T10:08:25;12.32;;;11.73;;
77544;SDS011;66672;50.328;7.610;2024-03-29T10:10:51;11.95;;;11.35;;
77544;SDS011;66672;50.328;7.610;2024-03-29T10:13:18;12.27;;;11.68;;
77544;SDS011;66672;50.328;7.610;2024-03-29T10:15:44;12.65;;;11.90;;
77544;SDS011;66672;50.328;7.610;2024-03-29T10:18:14;12.45;;;11.85;;
77544;SDS011;66672;50.328;7.610;2024-03-29T10:20:39;12.18;;;11.57;;
77544;SDS011;66672;50.328;7.610;2024-03-29T10:23:05;12.27;;;11.68;;
77544;SDS011;66672;50.328;7.610;2024-03-29T10:25:32;11.93;;;11.32;;
77544;SDS011;66672;50.328;7.610;2024-03-29T10:27:58;12.18;;;11.57;;
77544;SDS011;66672;50.328;7.610;2024-03-29T10:30:24;12.20;;;11.60;;
77544;SDS011;66672;50.328;7.610;2024-03-29T10:32:50;12.65;;;12.05;;
77544;SDS011;66672;50.328;7.610;2024-03-29T10:35:16;12.50;;;11.90;;
77544;SDS011;66672;50.328;7.610;2024-03-29T10:37:41;12.07;;;11.48;;
77544;SDS011;66672;50.328;7.610;2024-03-29T10:40:08;12.20;;;11.60;;
77544;SDS011;66672;50.328;7.610;2024-03-29T10:42:38;12.55;;;11.95;;
77544;SDS011;66672;50.328;7.610;2024-03-29T10:45:04;12.50;;;11.90;;
77544;SDS011;66672;50.328;7.610;2024-03-29T10:47:31;12.48;;;11.88;;
77544;SDS011;66672;50.328;7.610;2024-03-29T10:49:58;13.00;;;12.30;;
77544;SDS011;66672;50.328;7.610;2024-03-29T10:52:24;12.50;;;11.90;;
77544;SDS011;66672;50.328;7.610;2024-03-29T10:54:50;12.90;;;12.20;;
77544;SDS011;66672;50.328;7.610;2024-03-29T10:57:20;12.40;;;11.80;;
77544;SDS011;66672;50.328;7.610;2024-03-29T11:00:08;12.45;;;11.85;;
77544;SDS011;66672;50.328;7.610;2024-03-29T11:05:14;12.38;;;11.77;;
77544;SDS011;66672;50.328;7.610;2024-03-29T11:07:41;12.60;;;12.00;;
77544;SDS011;66672;50.328;7.610;2024-03-29T11:10:11;12.57;;;11.98;;
77544;SDS011;66672;50.328;7.610;2024-03-29T11:12:43;12.68;;;12.07;;
77544;SDS011;66672;50.328;7.610;2024-03-29T11:15:17;13.10;;;12.40;;
77544;SDS011;66672;50.328;7.610;2024-03-29T11:17:48;12.57;;;11.98;;
77544;SDS011;66672;50.328;7.610;2024-03-29T11:20:15;12.68;;;12.07;;
77544;SDS011;66672;50.328;7.610;2024-03-29T11:22:45;11.98;;;11.38;;
77544;SDS011;66672;50.328;7.610;2024-03-29T11:25:11;11.77;;;11.18;;
77544;SDS011;66672;50.328;7.610;2024-03-29T11:27:38;11.98;;;11.38;;
77544;SDS011;66672;50.328;7.610;2024-03-29T11:30:03;12.30;;;11.70;;
77544;SDS011;66672;50.328;7.610;2024-03-29T11:32:34;11.68;;;11.07;;
77544;SDS011;66672;50.328;7.610;2024-03-29T11:35:03;11.73;;;11.13;;
77544;SDS011;66672;50.328;7.610;2024-03-29T11:37:31;11.80;;;11.20;;
77544;SDS011;66672;50.328;7.610;2024-03-29T11:40:00;11.20;;;10.60;;
77544;SDS011;66672;50.328;7.610;2024-03-29T11:42:38;11.20;;;10.60;;
77544;SDS011;66672;50.328;7.610;2024-03-29T11:45:08;11.15;;;10.55;;
77544;SDS011;66672;50.328;7.610;2024-03-29T11:47:35;10.88;;;10.27;;
77544;SDS011;66672;50.328;7.610;2024-03-29T11:50:01;11.50;;;10.90;;
77544;SDS011;66672;50.328;7.610;2024-03-29T11:52:26;11.10;;;10.50;;
77544;SDS011;66672;50.328;7.610;2024-03-29T11:54:53;10.93;;;10.32;;
77544;SDS011;66672;50.328;7.610;2024-03-29T11:57:19;10.57;;;10.07;;
77544;SDS011;66672;50.328;7.610;2024-03-29T11:59:44;10.40;;;9.90;;
77544;SDS011;66672;50.328;7.610;2024-03-29T12:02:09;10.70;;;10.20;;
77544;SDS011;66672;50.328;7.610;2024-03-29T12:04:40;11.00;;;10.40;;
77544;SDS011;66672;50.328;7.610;2024-03-29T12:07:06;10.80;;;10.25;;
77544;SDS011;66672;50.328;7.610;2024-03-29T12:09:31;11.20;;;10.60;;
77544;SDS011;66672;50.328;7.610;2024-03-29T12:11:56;11.00;;;10.40;;
77544;SDS011;66672;50.328;7.610;2024-03-29T12:14:24;11.00;;;10.40;;
77544;SDS011;66672;50.328;7.610;2024-03-29T12:16:52;10.82;;;10.25;;
77544;SDS011;66672;50.328;7.610;2024-03-29T12:19:22;10.90;;;10.30;;
77544;SDS011;66672;50.328;7.610;2024-03-29T12:21:52;10.73;;;10.23;;
77544;SDS011;66672;50.328;7.610;2024-03-29T12:24:17;11.00;;;10.40;;
77544;SDS011;66672;50.328;7.610;2024-03-29T12:26:43;10.90;;;10.30;;
77544;SDS011;66672;50.328;7.610;2024-03-29T12:29:08;11.13;;;10.52;;
77544;SDS011;66672;50.328;7.610;2024-03-29T12:31:34;10.80;;;10.20;;
77544;SDS011;66672;50.328;7.610;2024-03-29T12:33:59;10.77;;;10.23;;
77544;SDS011;66672;50.328;7.610;2024-03-29T12:36:24;11.00;;;10.40;;
77544;SDS011;66672;50.328;7.610;2024-03-29T12:38:55;10.98;;;10.38;;
77544;SDS011;66672;50.328;7.610;2024-03-29T12:41:23;11.00;;;10.40;;
77544;SDS011;66672;50.328;7.610;2024-03-29T12:43:50;11.20;;;10.60;;
77544;SDS011;66672;50.328;7.610;2024-03-29T12:46:15;10.93;;;10.32;;
77544;SDS011;66672;50.328;7.610;2024-03-29T12:48:42;11.25;;;10.65;;
77544;SDS011;66672;50.328;7.610;2024-03-29T12:51:07;11.05;;;10.45;;
77544;SDS011;66672;50.328;7.610;2024-03-29T12:53:33;11.10;;;10.50;;
77544;SDS011;66672;50.328;7.610;2024-03-29T12:55:58;11.40;;;10.80;;
77544;SDS011;66672;50.328;7.610;2024-03-29T12:58:24;11.32;;;10.73;;
77544;SDS011;66672;50.328;7.610;2024-03-29T13:00:49;11.10;;;10.50;;
77544;SDS011;66672;50.328;7.610;2024-03-29T13:03:15;11.18;;;10.57;;
77544;SDS011;66672;50.328;7.610;2024-03-29T13:05:41;11.38;;;10.77;;
77544;SDS011;66672;50.328;7.610;2024-03-29T13:08:07;12.25;;;11.65;;
77544;SDS011;66672;50.328;7.610;2024-03-29T13:10:35;11.48;;;10.88;;
77544;SDS011;66672;50.328;7.610;2024-03-29T13:13:01;11.40;;;10.80;;
77544;SDS011;66672;50.328;7.610;2024-03-29T13:15:26;11.75;;;11.15;;
77544;SDS011;66672;50.328;7.610;2024-03-29T13:17:54;11.60;;;11.00;;
77544;SDS011;66672;50.328;7.610;2024-03-29T13:20:21;11.70;;;11.10;;
77544;SDS011;66672;50.328;7.610;2024-03-29T13:22:48;11.75;;;11.15;;
77544;SDS011;66672;50.328;7.610;2024-03-29T13:25:21;12.27;;;11.68;;
77544;SDS011;66672;50.328;7.610;2024-03-29T13:27:48;12.02;;;11.43;;
77544;SDS011;66672;50.328;7.610;2024-03-29T13:30:18;12.07;;;11.48;;
77544;SDS011;66672;50.328;7.610;2024-03-29T13:32:44;12.40;;;11.80;;
77544;SDS011;66672;50.328;7.610;2024-03-29T13:35:12;11.98;;;11.38;;
77544;SDS011;66672;50.328;7.610;2024-03-29T13:37:38;12.93;;;12.30;;
77544;SDS011;66672;50.328;7.610;2024-03-29T13:40:07;12.40;;;11.80;;
77544;SDS011;66672;50.328;7.610;2024-03-29T13:42:33;12.10;;;11.50;;
77544;SDS011;66672;50.328;7.610;2024-03-29T13:44:59;12.07;;;11.48;;
77544;SDS011;66672;50.328;7.610;2024-03-29T13:47:24;12.40;;;11.80;;
77544;SDS011;66672;50.328;7.610;2024-03-29T13:49:50;12.13;;;11.52;;
77544;SDS011;66672;50.328;7.610;2024-03-29T13:52:19;12.50;;;11.90;;
77544;SDS011;66672;50.328;7.610;2024-03-29T13:54:45;12.32;;;11.73;;
77544;SDS011;66672;50.328;7.610;2024-03-29T13:57:12;12.30;;;11.70;;
77544;SDS011;66672;50.328;7.610;2024-03-29T13:59:38;12.50;;;11.90;;
77544;SDS011;66672;50.328;7.610;2024-03-29T14:02:03;12.30;;;11.70;;
77544;SDS011;66672;50.328;7.610;2024-03-29T14:04:28;12.88;;;12.05;;
77544;SDS011;66672;50.328;7.610;2024-03-29T14:06:54;13.05;;;12.35;;
77544;SDS011;66672;50.328;7.610;2024-03-29T14:09:19;12.50;;;11.90;;
77544;SDS011;66672;50.328;7.610;2024-03-29T14:11:45;12.57;;;11.90;;
77544;SDS011;66672;50.328;7.610;2024-03-29T14:14:11;12.75;;;12.05;;
77544;SDS011;66672;50.328;7.610;2024-03-29T14:16:37;12.93;;;12.23;;
77544;SDS011;66672;50.328;7.610;2024-03-29T14:19:03;13.30;;;12.60;;